sensor_id;sensor_type;location;lat;lon;timestamp;temperature;humidity
15160;DHT22;7680;48.800;9.680;2022-08-01T00:00:59;18.30;99.90
15160;DHT22;7680;48.800;9.680;2022-08-01T00:03:32;18.30;99.90
15160;DHT22;7680;48.800;9.680;2022-08-01T00:06:05;18.20;99.90
15160;DHT22;7680;48.800;9.680;2022-08-01T00:08:40;18.30;99.90
15160;DHT22;7680;48.800;9.680;2022-08-01T00:11:13;18.20;99.90
15160;DHT22;7680;48.800;9.680;2022-08-01T00:13:46;18.10;99.90
15160;DHT22;7680;48.800;9.680;2022-08-01T00:16:19;18.10;99.90
15160;DHT22;7680;48.800;9.680;2022-08-01T00:18:54;18.10;99.90
15160;DHT22;7680;48.800;9.680;2022-08-01T00:21:27;18.00;99.90
15160;DHT22;7680;48.800;9.680;2022-08-01T00:24:01;18.00;99.90
15160;DHT22;7680;48.800;9.680;2022-08-01T00:26:35;18.00;99.90
15160;DHT22;7680;48.800;9.680;2022-08-01T00:29:08;18.00;99.90
15160;DHT22;7680;48.800;9.680;2022-08-01T00:32:01;18.00;99.90
15160;DHT22;7680;48.800;9.680;2022-08-01T00:34:35;17.90;99.90
15160;DHT22;7680;48.800;9.680;2022-08-01T00:37:08;17.90;99.90
15160;DHT22;7680;48.800;9.680;2022-08-01T00:39:47;17.80;99.90
15160;DHT22;7680;48.800;9.680;2022-08-01T00:42:21;17.70;99.90
15160;DHT22;7680;48.800;9.680;2022-08-01T00:44:54;17.70;99.90
15160;DHT22;7680;48.800;9.680;2022-08-01T00:47:27;17.70;99.90
15160;DHT22;7680;48.800;9.680;2022-08-01T00:50:00;17.60;99.90
15160;DHT22;7680;48.800;9.680;2022-08-01T00:52:35;17.60;99.90
15160;DHT22;7680;48.800;9.680;2022-08-01T00:55:10;17.60;99.90
15160;DHT22;7680;48.800;9.680;2022-08-01T00:57:46;17.60;99.90
15160;DHT22;7680;48.800;9.680;2022-08-01T01:00:36;17.50;99.90
15160;DHT22;7680;48.800;9.680;2022-08-01T01:03:24;17.50;99.90
15160;DHT22;7680;48.800;9.680;2022-08-01T01:06:35;17.50;99.90
15160;DHT22;7680;48.800;9.680;2022-08-01T01:09:26;17.50;99.90
15160;DHT22;7680;48.800;9.680;2022-08-01T01:12:18;17.50;99.90
15160;DHT22;7680;48.800;9.680;2022-08-01T01:14:59;17.40;99.90
15160;DHT22;7680;48.800;9.680;2022-08-01T01:17:39;17.40;99.90
15160;DHT22;7680;48.800;9.680;2022-08-01T01:20:26;17.40;99.90
15160;DHT22;7680;48.800;9.680;2022-08-01T01:23:24;17.30;99.90
15160;DHT22;7680;48.800;9.680;2022-08-01T01:26:17;17.30;99.90
15160;DHT22;7680;48.800;9.680;2022-08-01T01:29:08;17.20;99.90
15160;DHT22;7680;48.800;9.680;2022-08-01T01:31:49;17.20;99.90
15160;DHT22;7680;48.800;9.680;2022-08-01T01:34:24;17.20;99.90
15160;DHT22;7680;48.800;9.680;2022-08-01T01:37:01;17.10;99.90
15160;DHT22;7680;48.800;9.680;2022-08-01T01:39:36;17.00;99.90
15160;DHT22;7680;48.800;9.680;2022-08-01T01:42:16;17.00;99.90
15160;DHT22;7680;48.800;9.680;2022-08-01T01:44:51;16.90;99.90
15160;DHT22;7680;48.800;9.680;2022-08-01T01:47:27;17.00;99.90
15160;DHT22;7680;48.800;9.680;2022-08-01T01:50:02;16.90;99.90
15160;DHT22;7680;48.800;9.680;2022-08-01T01:52:39;17.00;99.90
15160;DHT22;7680;48.800;9.680;2022-08-01T01:55:13;16.90;99.90
15160;DHT22;7680;48.800;9.680;2022-08-01T01:57:48;16.90;99.90
15160;DHT22;7680;48.800;9.680;2022-08-01T02:00:24;16.90;99.90
15160;DHT22;7680;48.800;9.680;2022-08-01T02:03:01;16.90;99.90
15160;DHT22;7680;48.800;9.680;2022-08-01T02:05:35;16.90;99.90
15160;DHT22;7680;48.800;9.680;2022-08-01T02:08:11;16.80;99.90
15160;DHT22;7680;48.800;9.680;2022-08-01T02:10:47;16.80;99.90
15160;DHT22;7680;48.800;9.680;2022-08-01T02:13:36;16.80;99.90
15160;DHT22;7680;48.800;9.680;2022-08-01T02:16:13;16.80;99.90
15160;DHT22;7680;48.800;9.680;2022-08-01T02:18:46;16.80;99.90
15160;DHT22;7680;48.800;9.680;2022-08-01T02:21:25;16.80;99.90
15160;DHT22;7680;48.800;9.680;2022-08-01T02:24:03;16.70;99.90
15160;DHT22;7680;48.800;9.680;2022-08-01T02:26:47;16.80;99.90
15160;DHT22;7680;48.800;9.680;2022-08-01T02:29:26;16.70;99.90
15160;DHT22;7680;48.800;9.680;2022-08-01T02:32:02;16.70;99.90
15160;DHT22;7680;48.800;9.680;2022-08-01T02:34:38;16.70;99.90
15160;DHT22;7680;48.800;9.680;2022-08-01T02:37:13;16.60;99.90
15160;DHT22;7680;48.800;9.680;2022-08-01T02:39:48;16.60;99.90
15160;DHT22;7680;48.800;9.680;2022-08-01T02:42:26;16.70;99.90
15160;DHT22;7680;48.800;9.680;2022-08-01T02:45:02;16.70;99.90
15160;DHT22;7680;48.800;9.680;2022-08-01T02:47:40;16.70;99.90
15160;DHT22;7680;48.800;9.680;2022-08-01T02:50:16;16.60;99.90
15160;DHT22;7680;48.800;9.680;2022-08-01T02:52:51;16.60;99.90
15160;DHT22;7680;48.800;9.680;2022-08-01T02:55:26;16.60;99.90
15160;DHT22;7680;48.800;9.680;2022-08-01T02:58:01;16.60;99.90
15160;DHT22;7680;48.800;9.680;2022-08-01T03:00:35;16.50;99.90
15160;DHT22;7680;48.800;9.680;2022-08-01T03:03:12;16.50;99.90
15160;DHT22;7680;48.800;9.680;2022-08-01T03:05:47;16.50;99.90
15160;DHT22;7680;48.800;9.680;2022-08-01T03:08:22;16.60;99.90
15160;DHT22;7680;48.800;9.680;2022-08-01T03:10:57;16.60;99.90
15160;DHT22;7680;48.800;9.680;2022-08-01T03:13:32;16.60;99.90
15160;DHT22;7680;48.800;9.680;2022-08-01T03:16:06;16.50;99.90
15160;DHT22;7680;48.800;9.680;2022-08-01T03:18:43;16.50;99.90
15160;DHT22;7680;48.800;9.680;2022-08-01T03:21:18;16.50;99.90
15160;DHT22;7680;48.800;9.680;2022-08-01T03:23:53;16.50;99.90
15160;DHT22;7680;48.800;9.680;2022-08-01T03:26:31;16.50;99.90
15160;DHT22;7680;48.800;9.680;2022-08-01T03:29:08;16.40;99.90
15160;DHT22;7680;48.800;9.680;2022-08-01T03:31:46;16.40;99.90
15160;DHT22;7680;48.800;9.680;2022-08-01T03:34:22;16.40;99.90
15160;DHT22;7680;48.800;9.680;2022-08-01T03:37:02;16.40;99.90
15160;DHT22;7680;48.800;9.680;2022-08-01T03:39:40;16.40;99.90
15160;DHT22;7680;48.800;9.680;2022-08-01T03:42:20;16.30;99.90
15160;DHT22;7680;48.800;9.680;2022-08-01T03:45:02;16.30;99.90
15160;DHT22;7680;48.800;9.680;2022-08-01T03:47:43;16.20;99.90
15160;DHT22;7680;48.800;9.680;2022-08-01T03:50:21;16.20;99.90
15160;DHT22;7680;48.800;9.680;2022-08-01T03:52:57;16.20;99.90
15160;DHT22;7680;48.800;9.680;2022-08-01T03:55:33;16.10;99.90
15160;DHT22;7680;48.800;9.680;2022-08-01T03:58:07;16.20;99.90
15160;DHT22;7680;48.800;9.680;2022-08-01T04:00:42;16.20;99.90
15160;DHT22;7680;48.800;9.680;2022-08-01T04:03:16;16.20;99.90
15160;DHT22;7680;48.800;9.680;2022-08-01T04:05:51;16.20;99.90
15160;DHT22;7680;48.800;9.680;2022-08-01T04:08:34;16.20;99.90
15160;DHT22;7680;48.800;9.680;2022-08-01T04:11:09;16.20;99.90
15160;DHT22;7680;48.800;9.680;2022-08-01T04:13:42;16.30;99.90
15160;DHT22;7680;48.800;9.680;2022-08-01T04:16:15;16.30;99.90
15160;DHT22;7680;48.800;9.680;2022-08-01T04:18:48;16.30;99.90
15160;DHT22;7680;48.800;9.680;2022-08-01T04:21:26;16.30;99.90
15160;DHT22;7680;48.800;9.680;2022-08-01T04:24:03;16.40;99.90
15160;DHT22;7680;48.800;9.680;2022-08-01T04:26:40;16.30;99.90
15160;DHT22;7680;48.800;9.680;2022-08-01T04:29:16;16.40;99.90
15160;DHT22;7680;48.800;9.680;2022-08-01T04:31:53;16.30;99.90
15160;DHT22;7680;48.800;9.680;2022-08-01T04:34:29;16.30;99.90
15160;DHT22;7680;48.800;9.680;2022-08-01T04:37:05;16.30;99.90
15160;DHT22;7680;48.800;9.680;2022-08-01T04:39:43;16.30;99.90
15160;DHT22;7680;48.800;9.680;2022-08-01T04:42:21;16.30;99.90
15160;DHT22;7680;48.800;9.680;2022-08-01T04:45:05;16.30;99.90
15160;DHT22;7680;48.800;9.680;2022-08-01T04:47:40;16.30;99.90
15160;DHT22;7680;48.800;9.680;2022-08-01T04:50:15;16.40;99.90
15160;DHT22;7680;48.800;9.680;2022-08-01T04:52:50;16.50;99.90
15160;DHT22;7680;48.800;9.680;2022-08-01T04:55:24;16.60;99.90
15160;DHT22;7680;48.800;9.680;2022-08-01T04:57:57;16.70;99.90
15160;DHT22;7680;48.800;9.680;2022-08-01T05:00:31;16.60;99.90
15160;DHT22;7680;48.800;9.680;2022-08-01T05:03:05;16.70;99.90
15160;DHT22;7680;48.800;9.680;2022-08-01T05:05:38;16.70;99.90
15160;DHT22;7680;48.800;9.680;2022-08-01T05:08:13;16.80;99.90
15160;DHT22;7680;48.800;9.680;2022-08-01T05:10:48;16.80;99.90
15160;DHT22;7680;48.800;9.680;2022-08-01T05:13:21;16.80;99.90
15160;DHT22;7680;48.800;9.680;2022-08-01T05:15:54;16.80;99.90
15160;DHT22;7680;48.800;9.680;2022-08-01T05:18:27;16.80;99.90
15160;DHT22;7680;48.800;9.680;2022-08-01T05:21:01;17.10;99.90
15160;DHT22;7680;48.800;9.680;2022-08-01T05:23:35;17.20;99.90
15160;DHT22;7680;48.800;9.680;2022-08-01T05:26:14;17.40;99.90
15160;DHT22;7680;48.800;9.680;2022-08-01T05:28:47;18.30;99.90
15160;DHT22;7680;48.800;9.680;2022-08-01T05:31:20;19.20;99.90
15160;DHT22;7680;48.800;9.680;2022-08-01T05:33:53;20.00;99.90
15160;DHT22;7680;48.800;9.680;2022-08-01T05:36:26;20.70;99.90
15160;DHT22;7680;48.800;9.680;2022-08-01T05:39:01;21.10;99.90
15160;DHT22;7680;48.800;9.680;2022-08-01T05:41:35;21.80;99.90
15160;DHT22;7680;48.800;9.680;2022-08-01T05:44:09;22.10;99.60
15160;DHT22;7680;48.800;9.680;2022-08-01T05:46:42;21.70;99.90
15160;DHT22;7680;48.800;9.680;2022-08-01T05:49:15;21.70;99.90
15160;DHT22;7680;48.800;9.680;2022-08-01T05:51:49;22.20;99.90
15160;DHT22;7680;48.800;9.680;2022-08-01T05:54:23;22.20;99.40
15160;DHT22;7680;48.800;9.680;2022-08-01T05:56:56;22.00;99.90
15160;DHT22;7680;48.800;9.680;2022-08-01T05:59:33;22.00;99.90
15160;DHT22;7680;48.800;9.680;2022-08-01T06:02:06;22.50;99.70
15160;DHT22;7680;48.800;9.680;2022-08-01T06:04:40;22.80;99.10
15160;DHT22;7680;48.800;9.680;2022-08-01T06:07:13;23.30;98.20
15160;DHT22;7680;48.800;9.680;2022-08-01T06:09:48;23.60;97.50
15160;DHT22;7680;48.800;9.680;2022-08-01T06:12:21;24.10;96.60
15160;DHT22;7680;48.800;9.680;2022-08-01T06:14:54;24.50;95.40
15160;DHT22;7680;48.800;9.680;2022-08-01T06:17:27;24.70;94.90
15160;DHT22;7680;48.800;9.680;2022-08-01T06:20:00;25.00;93.80
15160;DHT22;7680;48.800;9.680;2022-08-01T06:22:33;25.00;93.60
15160;DHT22;7680;48.800;9.680;2022-08-01T06:25:09;25.40;92.20
15160;DHT22;7680;48.800;9.680;2022-08-01T06:27:42;25.40;92.20
15160;DHT22;7680;48.800;9.680;2022-08-01T06:30:15;25.10;92.40
15160;DHT22;7680;48.800;9.680;2022-08-01T06:32:48;25.40;92.20
15160;DHT22;7680;48.800;9.680;2022-08-01T06:35:21;25.60;91.40
15160;DHT22;7680;48.800;9.680;2022-08-01T06:37:55;26.00;90.80
15160;DHT22;7680;48.800;9.680;2022-08-01T06:40:30;26.50;90.10
15160;DHT22;7680;48.800;9.680;2022-08-01T06:43:06;26.90;88.20
15160;DHT22;7680;48.800;9.680;2022-08-01T06:45:40;27.20;86.50
15160;DHT22;7680;48.800;9.680;2022-08-01T06:48:13;27.40;85.70
15160;DHT22;7680;48.800;9.680;2022-08-01T06:50:46;27.50;84.60
15160;DHT22;7680;48.800;9.680;2022-08-01T06:53:19;27.80;84.50
15160;DHT22;7680;48.800;9.680;2022-08-01T06:55:54;28.00;83.70
15160;DHT22;7680;48.800;9.680;2022-08-01T06:58:27;28.00;83.50
15160;DHT22;7680;48.800;9.680;2022-08-01T07:01:03;28.30;83.00
15160;DHT22;7680;48.800;9.680;2022-08-01T07:03:38;28.40;82.50
15160;DHT22;7680;48.800;9.680;2022-08-01T07:06:26;28.40;82.70
15160;DHT22;7680;48.800;9.680;2022-08-01T07:08:59;28.60;81.70
15160;DHT22;7680;48.800;9.680;2022-08-01T07:11:42;28.90;81.20
15160;DHT22;7680;48.800;9.680;2022-08-01T07:14:16;29.20;80.40
15160;DHT22;7680;48.800;9.680;2022-08-01T07:16:49;29.20;80.40
15160;DHT22;7680;48.800;9.680;2022-08-01T07:19:23;29.60;79.20
15160;DHT22;7680;48.800;9.680;2022-08-01T07:21:56;29.80;78.70
15160;DHT22;7680;48.800;9.680;2022-08-01T07:24:29;29.70;78.50
15160;DHT22;7680;48.800;9.680;2022-08-01T07:27:07;29.70;78.90
15160;DHT22;7680;48.800;9.680;2022-08-01T07:29:55;29.90;78.50
15160;DHT22;7680;48.800;9.680;2022-08-01T07:32:28;29.70;78.50
15160;DHT22;7680;48.800;9.680;2022-08-01T07:35:02;29.70;77.70
15160;DHT22;7680;48.800;9.680;2022-08-01T07:37:36;29.60;79.20
15160;DHT22;7680;48.800;9.680;2022-08-01T07:40:20;29.80;78.80
15160;DHT22;7680;48.800;9.680;2022-08-01T07:42:54;29.90;78.60
15160;DHT22;7680;48.800;9.680;2022-08-01T07:45:27;30.20;77.50
15160;DHT22;7680;48.800;9.680;2022-08-01T07:48:03;30.10;77.70
15160;DHT22;7680;48.800;9.680;2022-08-01T07:50:39;30.10;77.80
15160;DHT22;7680;48.800;9.680;2022-08-01T07:53:12;30.10;77.90
15160;DHT22;7680;48.800;9.680;2022-08-01T07:55:46;30.30;76.70
15160;DHT22;7680;48.800;9.680;2022-08-01T07:58:20;30.20;76.90
15160;DHT22;7680;48.800;9.680;2022-08-01T08:00:54;30.00;77.60
15160;DHT22;7680;48.800;9.680;2022-08-01T08:03:27;30.20;77.40
15160;DHT22;7680;48.800;9.680;2022-08-01T08:06:00;30.00;77.30
15160;DHT22;7680;48.800;9.680;2022-08-01T08:08:33;30.30;77.80
15160;DHT22;7680;48.800;9.680;2022-08-01T08:11:07;30.50;76.90
15160;DHT22;7680;48.800;9.680;2022-08-01T08:13:41;30.80;75.40
15160;DHT22;7680;48.800;9.680;2022-08-01T08:16:14;30.50;75.60
15160;DHT22;7680;48.800;9.680;2022-08-01T08:18:47;30.70;76.70
15160;DHT22;7680;48.800;9.680;2022-08-01T08:21:20;30.60;75.30
15160;DHT22;7680;48.800;9.680;2022-08-01T08:23:54;30.50;75.20
15160;DHT22;7680;48.800;9.680;2022-08-01T08:26:44;30.00;76.60
15160;DHT22;7680;48.800;9.680;2022-08-01T08:29:24;30.10;76.80
15160;DHT22;7680;48.800;9.680;2022-08-01T08:31:59;30.20;77.50
15160;DHT22;7680;48.800;9.680;2022-08-01T08:34:33;30.50;76.20
15160;DHT22;7680;48.800;9.680;2022-08-01T08:37:06;29.90;77.90
15160;DHT22;7680;48.800;9.680;2022-08-01T08:39:40;29.30;79.30
15160;DHT22;7680;48.800;9.680;2022-08-01T08:42:13;29.00;80.00
15160;DHT22;7680;48.800;9.680;2022-08-01T08:44:48;28.60;81.30
15160;DHT22;7680;48.800;9.680;2022-08-01T08:47:22;28.40;81.30
15160;DHT22;7680;48.800;9.680;2022-08-01T08:49:57;28.20;83.00
15160;DHT22;7680;48.800;9.680;2022-08-01T08:52:34;27.50;84.10
15160;DHT22;7680;48.800;9.680;2022-08-01T08:55:08;27.40;85.30
15160;DHT22;7680;48.800;9.680;2022-08-01T08:57:46;27.90;84.30
15160;DHT22;7680;48.800;9.680;2022-08-01T09:00:21;28.20;82.60
15160;DHT22;7680;48.800;9.680;2022-08-01T09:02:54;28.40;82.00
15160;DHT22;7680;48.800;9.680;2022-08-01T09:05:28;28.80;81.60
15160;DHT22;7680;48.800;9.680;2022-08-01T09:08:10;28.50;82.20
15160;DHT22;7680;48.800;9.680;2022-08-01T09:10:43;28.30;82.10
15160;DHT22;7680;48.800;9.680;2022-08-01T09:13:16;28.20;82.50
15160;DHT22;7680;48.800;9.680;2022-08-01T09:15:54;28.60;81.50
15160;DHT22;7680;48.800;9.680;2022-08-01T09:18:32;29.30;79.00
15160;DHT22;7680;48.800;9.680;2022-08-01T09:21:12;29.40;78.40
15160;DHT22;7680;48.800;9.680;2022-08-01T09:23:50;29.10;79.90
15160;DHT22;7680;48.800;9.680;2022-08-01T09:26:29;29.40;79.60
15160;DHT22;7680;48.800;9.680;2022-08-01T09:29:07;29.60;78.60
15160;DHT22;7680;48.800;9.680;2022-08-01T09:31:48;30.20;76.90
15160;DHT22;7680;48.800;9.680;2022-08-01T09:34:26;30.50;77.70
15160;DHT22;7680;48.800;9.680;2022-08-01T09:37:01;30.60;77.80
15160;DHT22;7680;48.800;9.680;2022-08-01T09:39:38;30.10;77.30
15160;DHT22;7680;48.800;9.680;2022-08-01T09:42:22;29.90;77.00
15160;DHT22;7680;48.800;9.680;2022-08-01T09:45:00;29.80;77.40
15160;DHT22;7680;48.800;9.680;2022-08-01T09:47:40;30.30;76.70
15160;DHT22;7680;48.800;9.680;2022-08-01T09:50:15;30.30;76.90
15160;DHT22;7680;48.800;9.680;2022-08-01T09:52:53;29.90;76.40
15160;DHT22;7680;48.800;9.680;2022-08-01T09:55:27;29.30;77.30
15160;DHT22;7680;48.800;9.680;2022-08-01T09:58:01;29.00;77.90
15160;DHT22;7680;48.800;9.680;2022-08-01T10:00:36;28.80;79.20
15160;DHT22;7680;48.800;9.680;2022-08-01T10:03:22;29.10;78.30
15160;DHT22;7680;48.800;9.680;2022-08-01T10:05:57;29.50;78.50
15160;DHT22;7680;48.800;9.680;2022-08-01T10:08:45;29.70;77.20
15160;DHT22;7680;48.800;9.680;2022-08-01T10:11:20;29.50;77.30
15160;DHT22;7680;48.800;9.680;2022-08-01T10:14:07;29.40;77.20
15160;DHT22;7680;48.800;9.680;2022-08-01T10:16:41;29.70;77.10
15160;DHT22;7680;48.800;9.680;2022-08-01T10:19:15;30.00;76.50
15160;DHT22;7680;48.800;9.680;2022-08-01T10:21:50;30.10;75.70
15160;DHT22;7680;48.800;9.680;2022-08-01T10:24:30;30.20;74.60
15160;DHT22;7680;48.800;9.680;2022-08-01T10:27:06;29.90;75.60
15160;DHT22;7680;48.800;9.680;2022-08-01T10:29:47;29.90;76.10
15160;DHT22;7680;48.800;9.680;2022-08-01T10:32:39;30.10;74.90
15160;DHT22;7680;48.800;9.680;2022-08-01T10:35:22;30.20;75.30
15160;DHT22;7680;48.800;9.680;2022-08-01T10:38:15;30.20;73.80
15160;DHT22;7680;48.800;9.680;2022-08-01T10:40:50;30.10;73.90
15160;DHT22;7680;48.800;9.680;2022-08-01T10:43:25;30.10;74.10
15160;DHT22;7680;48.800;9.680;2022-08-01T10:45:59;29.80;74.70
15160;DHT22;7680;48.800;9.680;2022-08-01T10:48:41;29.40;75.20
15160;DHT22;7680;48.800;9.680;2022-08-01T10:51:20;29.10;76.10
15160;DHT22;7680;48.800;9.680;2022-08-01T10:54:14;29.10;76.20
15160;DHT22;7680;48.800;9.680;2022-08-01T10:56:49;29.20;75.30
15160;DHT22;7680;48.800;9.680;2022-08-01T10:59:25;29.20;75.50
15160;DHT22;7680;48.800;9.680;2022-08-01T11:02:27;29.00;75.30
15160;DHT22;7680;48.800;9.680;2022-08-01T11:05:07;28.70;76.20
15160;DHT22;7680;48.800;9.680;2022-08-01T11:07:53;28.80;77.50
15160;DHT22;7680;48.800;9.680;2022-08-01T11:10:33;28.80;77.50
15160;DHT22;7680;48.800;9.680;2022-08-01T11:13:10;28.40;76.20
15160;DHT22;7680;48.800;9.680;2022-08-01T11:15:44;28.80;76.40
15160;DHT22;7680;48.800;9.680;2022-08-01T11:18:31;29.30;75.30
15160;DHT22;7680;48.800;9.680;2022-08-01T11:21:09;29.40;75.30
15160;DHT22;7680;48.800;9.680;2022-08-01T11:24:03;29.70;74.30
15160;DHT22;7680;48.800;9.680;2022-08-01T11:26:38;29.70;73.50
15160;DHT22;7680;48.800;9.680;2022-08-01T11:29:17;29.60;72.70
15160;DHT22;7680;48.800;9.680;2022-08-01T11:31:53;29.60;74.20
15160;DHT22;7680;48.800;9.680;2022-08-01T11:34:56;29.30;73.70
15160;DHT22;7680;48.800;9.680;2022-08-01T11:37:29;29.40;74.10
15160;DHT22;7680;48.800;9.680;2022-08-01T11:40:16;29.10;74.00
15160;DHT22;7680;48.800;9.680;2022-08-01T11:43:17;29.10;75.20
15160;DHT22;7680;48.800;9.680;2022-08-01T11:45:52;29.40;74.30
15160;DHT22;7680;48.800;9.680;2022-08-01T11:48:28;29.50;74.10
15160;DHT22;7680;48.800;9.680;2022-08-01T11:51:01;29.60;73.90
15160;DHT22;7680;48.800;9.680;2022-08-01T11:53:35;29.30;73.90
15160;DHT22;7680;48.800;9.680;2022-08-01T11:56:13;29.30;74.50
15160;DHT22;7680;48.800;9.680;2022-08-01T11:58:48;29.40;74.00
15160;DHT22;7680;48.800;9.680;2022-08-01T12:01:21;29.40;72.90
15160;DHT22;7680;48.800;9.680;2022-08-01T12:03:57;29.30;74.20
15160;DHT22;7680;48.800;9.680;2022-08-01T12:06:30;29.30;74.60
15160;DHT22;7680;48.800;9.680;2022-08-01T12:09:15;29.10;75.60
15160;DHT22;7680;48.800;9.680;2022-08-01T12:11:52;29.20;75.20
15160;DHT22;7680;48.800;9.680;2022-08-01T12:14:25;29.00;74.90
15160;DHT22;7680;48.800;9.680;2022-08-01T12:16:59;29.30;74.90
15160;DHT22;7680;48.800;9.680;2022-08-01T12:19:32;29.30;74.60
15160;DHT22;7680;48.800;9.680;2022-08-01T12:22:10;29.70;73.70
15160;DHT22;7680;48.800;9.680;2022-08-01T12:24:44;29.70;73.10
15160;DHT22;7680;48.800;9.680;2022-08-01T12:27:27;29.60;73.00
15160;DHT22;7680;48.800;9.680;2022-08-01T12:30:01;29.70;72.90
15160;DHT22;7680;48.800;9.680;2022-08-01T12:32:35;29.30;73.40
15160;DHT22;7680;48.800;9.680;2022-08-01T12:35:11;29.30;74.20
15160;DHT22;7680;48.800;9.680;2022-08-01T12:37:50;29.00;74.30
15160;DHT22;7680;48.800;9.680;2022-08-01T12:40:26;29.10;75.50
15160;DHT22;7680;48.800;9.680;2022-08-01T12:43:03;29.20;74.40
15160;DHT22;7680;48.800;9.680;2022-08-01T12:45:40;29.50;74.10
15160;DHT22;7680;48.800;9.680;2022-08-01T12:48:27;29.70;73.20
15160;DHT22;7680;48.800;9.680;2022-08-01T12:51:03;29.70;73.20
15160;DHT22;7680;48.800;9.680;2022-08-01T12:53:36;29.70;73.10
15160;DHT22;7680;48.800;9.680;2022-08-01T12:56:12;29.20;73.60
15160;DHT22;7680;48.800;9.680;2022-08-01T12:58:47;29.10;74.10
15160;DHT22;7680;48.800;9.680;2022-08-01T13:01:25;28.90;74.30
15160;DHT22;7680;48.800;9.680;2022-08-01T13:04:00;28.80;74.30
15160;DHT22;7680;48.800;9.680;2022-08-01T13:06:35;28.70;74.50
15160;DHT22;7680;48.800;9.680;2022-08-01T13:09:09;28.60;75.20
15160;DHT22;7680;48.800;9.680;2022-08-01T13:11:43;28.60;74.80
15160;DHT22;7680;48.800;9.680;2022-08-01T13:14:38;28.70;74.00
15160;DHT22;7680;48.800;9.680;2022-08-01T13:17:29;28.80;74.60
15160;DHT22;7680;48.800;9.680;2022-08-01T13:20:04;29.00;74.20
15160;DHT22;7680;48.800;9.680;2022-08-01T13:22:38;29.00;74.20
15160;DHT22;7680;48.800;9.680;2022-08-01T13:25:13;29.00;74.90
15160;DHT22;7680;48.800;9.680;2022-08-01T13:28:13;28.90;74.80
15160;DHT22;7680;48.800;9.680;2022-08-01T13:30:57;28.90;74.40
15160;DHT22;7680;48.800;9.680;2022-08-01T13:33:41;28.70;73.70
15160;DHT22;7680;48.800;9.680;2022-08-01T13:36:15;28.80;74.20
15160;DHT22;7680;48.800;9.680;2022-08-01T13:38:48;28.70;74.10
15160;DHT22;7680;48.800;9.680;2022-08-01T13:41:38;28.70;75.10
15160;DHT22;7680;48.800;9.680;2022-08-01T13:44:12;28.70;74.60
15160;DHT22;7680;48.800;9.680;2022-08-01T13:46:47;28.70;75.30
15160;DHT22;7680;48.800;9.680;2022-08-01T13:49:22;28.70;75.50
15160;DHT22;7680;48.800;9.680;2022-08-01T13:52:07;28.90;74.90
15160;DHT22;7680;48.800;9.680;2022-08-01T13:54:40;29.20;73.60
15160;DHT22;7680;48.800;9.680;2022-08-01T13:57:14;29.40;72.80
15160;DHT22;7680;48.800;9.680;2022-08-01T13:59:48;29.80;71.90
15160;DHT22;7680;48.800;9.680;2022-08-01T14:02:22;29.70;72.10
15160;DHT22;7680;48.800;9.680;2022-08-01T14:04:55;29.70;72.90
15160;DHT22;7680;48.800;9.680;2022-08-01T14:07:30;29.50;71.30
15160;DHT22;7680;48.800;9.680;2022-08-01T14:10:03;29.30;72.20
15160;DHT22;7680;48.800;9.680;2022-08-01T14:12:51;29.30;72.50
15160;DHT22;7680;48.800;9.680;2022-08-01T14:15:27;29.00;73.20
15160;DHT22;7680;48.800;9.680;2022-08-01T14:18:11;29.00;73.50
15160;DHT22;7680;48.800;9.680;2022-08-01T14:20:46;29.10;73.70
15160;DHT22;7680;48.800;9.680;2022-08-01T14:23:21;29.10;72.90
15160;DHT22;7680;48.800;9.680;2022-08-01T14:25:54;29.20;73.40
15160;DHT22;7680;48.800;9.680;2022-08-01T14:28:38;29.30;72.20
15160;DHT22;7680;48.800;9.680;2022-08-01T14:31:11;29.50;72.60
15160;DHT22;7680;48.800;9.680;2022-08-01T14:33:45;29.70;71.50
15160;DHT22;7680;48.800;9.680;2022-08-01T14:36:18;29.60;71.70
15160;DHT22;7680;48.800;9.680;2022-08-01T14:39:02;29.20;71.50
15160;DHT22;7680;48.800;9.680;2022-08-01T14:41:37;29.00;72.80
15160;DHT22;7680;48.800;9.680;2022-08-01T14:44:12;29.10;73.80
15160;DHT22;7680;48.800;9.680;2022-08-01T14:46:45;29.10;72.60
15160;DHT22;7680;48.800;9.680;2022-08-01T14:49:30;29.00;73.40
15160;DHT22;7680;48.800;9.680;2022-08-01T14:52:04;29.00;73.00
15160;DHT22;7680;48.800;9.680;2022-08-01T14:54:38;29.10;73.30
15160;DHT22;7680;48.800;9.680;2022-08-01T14:57:11;29.30;72.90
15160;DHT22;7680;48.800;9.680;2022-08-01T14:59:44;29.50;73.20
15160;DHT22;7680;48.800;9.680;2022-08-01T15:02:17;29.50;72.40
15160;DHT22;7680;48.800;9.680;2022-08-01T15:04:52;29.30;71.00
15160;DHT22;7680;48.800;9.680;2022-08-01T15:07:25;29.20;72.30
15160;DHT22;7680;48.800;9.680;2022-08-01T15:09:58;29.10;72.80
15160;DHT22;7680;48.800;9.680;2022-08-01T15:12:31;29.00;73.60
15160;DHT22;7680;48.800;9.680;2022-08-01T15:15:21;28.90;73.70
15160;DHT22;7680;48.800;9.680;2022-08-01T15:17:57;28.90;73.70
15160;DHT22;7680;48.800;9.680;2022-08-01T15:20:31;28.80;73.60
15160;DHT22;7680;48.800;9.680;2022-08-01T15:23:05;28.80;74.10
15160;DHT22;7680;48.800;9.680;2022-08-01T15:25:38;28.90;73.50
15160;DHT22;7680;48.800;9.680;2022-08-01T15:28:12;28.90;73.50
15160;DHT22;7680;48.800;9.680;2022-08-01T15:30:46;28.80;73.90
15160;DHT22;7680;48.800;9.680;2022-08-01T15:33:19;28.80;73.80
15160;DHT22;7680;48.800;9.680;2022-08-01T15:35:54;28.60;74.70
15160;DHT22;7680;48.800;9.680;2022-08-01T15:38:28;28.40;74.60
15160;DHT22;7680;48.800;9.680;2022-08-01T15:41:01;28.40;75.10
15160;DHT22;7680;48.800;9.680;2022-08-01T15:43:36;28.40;75.10
15160;DHT22;7680;48.800;9.680;2022-08-01T15:46:15;28.30;76.00
15160;DHT22;7680;48.800;9.680;2022-08-01T15:48:48;28.30;75.60
15160;DHT22;7680;48.800;9.680;2022-08-01T15:51:23;28.30;75.60
15160;DHT22;7680;48.800;9.680;2022-08-01T15:53:56;28.30;76.10
15160;DHT22;7680;48.800;9.680;2022-08-01T15:56:29;28.30;75.60
15160;DHT22;7680;48.800;9.680;2022-08-01T15:59:04;28.30;74.90
15160;DHT22;7680;48.800;9.680;2022-08-01T16:01:37;28.30;75.00
15160;DHT22;7680;48.800;9.680;2022-08-01T16:04:10;28.40;74.70
15160;DHT22;7680;48.800;9.680;2022-08-01T16:06:45;28.40;75.60
15160;DHT22;7680;48.800;9.680;2022-08-01T16:09:18;28.30;75.70
15160;DHT22;7680;48.800;9.680;2022-08-01T16:11:54;28.20;75.40
15160;DHT22;7680;48.800;9.680;2022-08-01T16:14:28;28.20;76.50
15160;DHT22;7680;48.800;9.680;2022-08-01T16:17:01;28.20;75.80
15160;DHT22;7680;48.800;9.680;2022-08-01T16:19:34;28.20;76.50
15160;DHT22;7680;48.800;9.680;2022-08-01T16:22:08;28.10;76.10
15160;DHT22;7680;48.800;9.680;2022-08-01T16:24:42;28.10;76.20
15160;DHT22;7680;48.800;9.680;2022-08-01T16:27:15;28.20;76.10
15160;DHT22;7680;48.800;9.680;2022-08-01T16:29:48;28.20;75.30
15160;DHT22;7680;48.800;9.680;2022-08-01T16:32:21;28.20;76.30
15160;DHT22;7680;48.800;9.680;2022-08-01T16:35:05;28.10;76.00
15160;DHT22;7680;48.800;9.680;2022-08-01T16:37:40;28.20;75.80
15160;DHT22;7680;48.800;9.680;2022-08-01T16:40:13;28.10;75.70
15160;DHT22;7680;48.800;9.680;2022-08-01T16:42:46;28.10;75.80
15160;DHT22;7680;48.800;9.680;2022-08-01T16:45:20;28.20;75.20